createdAt,value
2023-03-15T00:01:48.972Z,6.00
2023-03-15T00:04:15.631Z,5.88
2023-03-15T00:06:42.303Z,5.95
2023-03-15T00:09:08.972Z,5.94
2023-03-15T00:11:35.597Z,5.91
2023-03-15T00:14:02.564Z,5.90
2023-03-15T00:16:29.447Z,5.84
2023-03-15T00:18:56.521Z,5.78
2023-03-15T00:21:23.715Z,5.68
2023-03-15T00:23:50.752Z,5.66
2023-03-15T00:26:17.849Z,5.70
2023-03-15T00:28:44.618Z,5.59
2023-03-15T00:31:19.851Z,5.45
2023-03-15T00:33:47.173Z,5.52
2023-03-15T00:36:14.572Z,5.48
2023-03-15T00:38:44.151Z,5.42
2023-03-15T00:41:16.353Z,5.40
2023-03-15T00:43:43.803Z,5.39
2023-03-15T00:46:11.252Z,5.30
2023-03-15T00:48:38.488Z,5.22
2023-03-15T00:51:16.954Z,5.25
2023-03-15T00:53:45.431Z,5.23
2023-03-15T00:56:15.638Z,5.18
2023-03-15T00:58:42.758Z,5.19
2023-03-15T01:01:21.980Z,5.21
2023-03-15T01:03:48.916Z,5.15
2023-03-15T01:06:19.179Z,5.15
2023-03-15T01:08:45.941Z,5.07
2023-03-15T01:11:15.727Z,5.11
2023-03-15T01:13:42.744Z,5.22
2023-03-15T01:16:11.418Z,5.07
2023-03-15T01:18:38.536Z,5.00
2023-03-15T01:21:13.754Z,5.00
2023-03-15T01:23:41.443Z,5.05
2023-03-15T01:26:11.949Z,5.05
2023-03-15T01:28:39.044Z,5.00
2023-03-15T01:31:06.009Z,4.95
2023-03-15T01:33:32.791Z,5.00
2023-03-15T01:36:05.857Z,5.00
2023-03-15T01:38:32.951Z,4.98
2023-03-15T01:41:00.628Z,4.82
2023-03-15T01:43:29.016Z,4.87
2023-03-15T01:46:17.824Z,4.93
2023-03-15T01:48:53.635Z,4.90
2023-03-15T01:51:30.520Z,4.86
2023-03-15T01:54:13.293Z,4.74
2023-03-15T01:56:41.812Z,4.82
2023-03-15T01:59:16.100Z,4.79
2023-03-15T02:01:45.944Z,4.77
2023-03-15T02:04:18.656Z,4.80
2023-03-15T02:06:47.413Z,4.78
2023-03-15T02:09:18.137Z,4.70
2023-03-15T02:11:45.225Z,4.73
2023-03-15T02:14:14.488Z,4.69
2023-03-15T02:16:41.284Z,4.68
2023-03-15T02:19:22.600Z,4.64
2023-03-15T02:22:00.830Z,4.69
2023-03-15T02:25:08.971Z,4.67
2023-03-15T02:27:36.914Z,4.74
2023-03-15T02:30:04.687Z,4.73
2023-03-15T02:32:31.458Z,4.71
2023-03-15T02:34:58.519Z,4.69
2023-03-15T02:37:25.500Z,4.69
2023-03-15T02:39:52.136Z,4.71
2023-03-15T02:42:19.399Z,4.74
2023-03-15T02:44:48.883Z,4.80
2023-03-15T02:47:24.997Z,4.75
2023-03-15T02:49:53.892Z,4.80
2023-03-15T02:52:22.297Z,4.86
2023-03-15T02:54:49.488Z,4.76
2023-03-15T02:57:19.026Z,4.82
2023-03-15T02:59:45.752Z,4.81
2023-03-15T03:02:13.360Z,4.80
2023-03-15T03:04:41.557Z,4.76
2023-03-15T03:07:08.295Z,4.69
2023-03-15T03:09:35.183Z,4.83
2023-03-15T03:12:01.796Z,4.77
2023-03-15T03:14:29.120Z,4.79
2023-03-15T03:16:55.817Z,4.77
2023-03-15T03:19:25.702Z,4.77
2023-03-15T03:21:56.764Z,4.73
2023-03-15T03:24:25.863Z,4.78
2023-03-15T03:26:57.752Z,4.74
2023-03-15T03:29:25.220Z,4.82
2023-03-15T03:31:52.304Z,4.82
2023-03-15T03:34:19.910Z,4.84
2023-03-15T03:36:46.550Z,4.89
2023-03-15T03:39:13.187Z,4.81
2023-03-15T03:41:40.062Z,4.80
2023-03-15T03:44:06.717Z,4.80
2023-03-15T03:46:33.537Z,4.79
2023-03-15T03:49:00.321Z,4.79
2023-03-15T03:51:26.956Z,4.81
2023-03-15T03:53:53.586Z,4.78
2023-03-15T03:56:20.252Z,4.82
2023-03-15T03:58:46.853Z,4.83
2023-03-15T04:01:13.495Z,4.95
2023-03-15T04:03:40.224Z,4.91
2023-03-15T04:06:06.998Z,4.91
2023-03-15T04:08:33.721Z,4.86
2023-03-15T04:11:04.202Z,4.92
2023-03-15T04:13:31.376Z,4.93
2023-03-15T04:15:58.610Z,4.96
2023-03-15T04:18:25.257Z,4.86
2023-03-15T04:20:54.709Z,4.90
2023-03-15T04:23:23.028Z,4.87
2023-03-15T04:25:51.739Z,4.87
2023-03-15T04:28:19.658Z,4.90
2023-03-15T04:30:48.332Z,4.79
2023-03-15T04:33:15.120Z,4.73
2023-03-15T04:35:42.791Z,4.73
2023-03-15T04:38:09.501Z,4.76
2023-03-15T04:40:36.497Z,4.79
2023-03-15T04:43:05.334Z,4.80
2023-03-15T04:45:32.715Z,4.85
2023-03-15T04:47:59.738Z,4.75
2023-03-15T04:50:26.444Z,4.65
2023-03-15T04:52:53.556Z,4.59
2023-03-15T04:55:20.551Z,4.57
2023-03-15T04:57:47.197Z,4.52
2023-03-15T05:00:14.374Z,4.56
2023-03-15T05:02:41.947Z,4.43
2023-03-15T05:05:12.542Z,4.46
2023-03-15T05:07:39.342Z,4.38
2023-03-15T05:10:07.304Z,4.40
2023-03-15T05:12:34.066Z,4.21
2023-03-15T05:15:00.787Z,4.23
2023-03-15T05:17:28.035Z,4.15
2023-03-15T05:19:54.680Z,4.10
2023-03-15T05:22:25.563Z,4.11
2023-03-15T05:24:53.807Z,4.19
2023-03-15T05:27:20.871Z,4.13
2023-03-15T05:29:47.892Z,3.91
2023-03-15T05:32:14.609Z,3.67
2023-03-15T05:34:42.760Z,3.89
2023-03-15T05:37:10.331Z,3.78
2023-03-15T05:39:37.070Z,3.68
2023-03-15T05:42:03.941Z,3.71
2023-03-15T05:44:30.569Z,3.57
2023-03-15T05:46:57.232Z,3.52
2023-03-15T05:49:23.871Z,3.52
2023-03-15T05:51:50.500Z,3.54
2023-03-15T05:54:17.108Z,3.53
2023-03-15T05:56:43.748Z,3.54
2023-03-15T05:59:10.385Z,3.45
2023-03-15T06:01:37.078Z,3.42
2023-03-15T06:04:04.082Z,3.43
2023-03-15T06:06:33.276Z,3.34
2023-03-15T06:09:00.760Z,3.46
2023-03-15T06:11:27.466Z,3.39
2023-03-15T06:13:54.148Z,3.33
2023-03-15T06:16:20.955Z,3.20
2023-03-15T06:18:47.737Z,3.20
2023-03-15T06:21:14.558Z,3.17
2023-03-15T06:23:41.215Z,3.14
2023-03-15T06:26:07.822Z,3.23
2023-03-15T06:28:34.622Z,3.23
2023-03-15T06:31:12.645Z,3.09
2023-03-15T06:33:39.799Z,3.08
2023-03-15T06:36:07.334Z,3.09
2023-03-15T06:38:34.642Z,3.11
2023-03-15T06:41:01.401Z,3.12
2023-03-15T06:43:28.756Z,3.01
2023-03-15T06:45:56.779Z,2.92
2023-03-15T06:48:23.422Z,2.61
2023-03-15T06:50:50.323Z,2.14
2023-03-15T06:53:17.801Z,1.72
2023-03-15T06:55:45.215Z,1.49
2023-03-15T06:58:12.628Z,1.46
2023-03-15T07:00:39.678Z,1.30
2023-03-15T07:03:06.256Z,1.62
2023-03-15T07:05:32.855Z,1.49
2023-03-15T07:07:59.596Z,1.55
2023-03-15T07:10:26.241Z,1.56
2023-03-15T07:12:52.919Z,1.58
2023-03-15T07:15:19.567Z,1.50
2023-03-15T07:17:46.179Z,1.24
2023-03-15T07:20:13.081Z,1.09
2023-03-15T07:22:40.079Z,0.99
2023-03-15T07:25:07.552Z,0.86
2023-03-15T07:27:34.238Z,0.78
2023-03-15T07:30:01.326Z,0.58
2023-03-15T07:32:28.204Z,0.54
2023-03-15T07:34:58.274Z,0.53
2023-03-15T07:37:25.021Z,0.52
2023-03-15T07:39:51.628Z,0.31
2023-03-15T07:42:18.368Z,0.31
2023-03-15T07:44:45.001Z,0.44
2023-03-15T07:47:11.813Z,0.48
2023-03-15T07:49:38.428Z,0.51
2023-03-15T07:52:05.126Z,0.51
2023-03-15T07:54:32.068Z,0.50
2023-03-15T07:56:58.717Z,0.64
2023-03-15T07:59:25.436Z,0.76
2023-03-15T08:01:52.064Z,0.72
2023-03-15T08:04:18.704Z,0.60
2023-03-15T08:06:45.329Z,0.53
2023-03-15T08:09:12.061Z,0.41
2023-03-15T08:11:38.681Z,0.29
2023-03-15T08:14:05.875Z,0.34
2023-03-15T08:16:32.544Z,0.35
2023-03-15T08:18:59.195Z,0.48
2023-03-15T08:21:25.830Z,0.47
2023-03-15T08:23:52.491Z,0.67
2023-03-15T08:26:19.102Z,0.71
2023-03-15T08:28:45.715Z,0.93
2023-03-15T08:31:14.014Z,1.22
2023-03-15T08:33:40.960Z,1.44
2023-03-15T08:36:07.989Z,1.64
2023-03-15T08:38:34.850Z,1.80
2023-03-15T08:41:01.913Z,1.60
2023-03-15T08:43:28.524Z,1.63
2023-03-15T08:46:01.048Z,1.83
2023-03-15T08:48:28.372Z,1.81
2023-03-15T08:50:55.017Z,1.94
2023-03-15T08:53:21.584Z,2.03
2023-03-15T08:55:49.616Z,2.15
2023-03-15T08:58:16.322Z,2.33
2023-03-15T09:00:43.009Z,2.52
2023-03-15T09:03:09.625Z,2.73
2023-03-15T09:05:36.359Z,2.70
2023-03-15T09:08:03.108Z,2.75
2023-03-15T09:10:29.855Z,2.90
2023-03-15T09:12:56.491Z,3.16
2023-03-15T09:15:23.247Z,3.22
2023-03-15T09:17:51.671Z,3.37
2023-03-15T09:20:21.828Z,3.50
2023-03-15T09:22:53.683Z,3.64
2023-03-15T09:25:21.157Z,3.79
2023-03-15T09:27:47.795Z,3.89
2023-03-15T09:30:15.165Z,3.75
2023-03-15T09:32:43.703Z,3.83
2023-03-15T09:35:14.055Z,3.85
2023-03-15T09:37:42.389Z,3.84
2023-03-15T09:40:28.819Z,3.98
2023-03-15T09:43:40.036Z,3.94
2023-03-15T09:46:43.300Z,4.01
2023-03-15T09:49:21.999Z,3.93
2023-03-15T09:52:03.503Z,3.86
2023-03-15T09:54:50.679Z,3.84
2023-03-15T09:57:22.966Z,3.81
2023-03-15T09:59:53.708Z,3.66
2023-03-15T10:02:29.912Z,3.70
2023-03-15T10:05:13.814Z,3.49
2023-03-15T10:07:41.193Z,3.50
2023-03-15T10:10:28.486Z,3.60
2023-03-15T10:13:23.452Z,3.57
2023-03-15T10:16:27.969Z,3.68
2023-03-15T10:19:31.929Z,3.69
2023-03-15T10:22:23.017Z,3.86
2023-03-15T10:25:05.169Z,4.07
2023-03-15T10:27:43.102Z,4.15
2023-03-15T10:30:17.036Z,4.26
2023-03-15T10:32:47.655Z,4.19
2023-03-15T10:35:17.345Z,4.40
2023-03-15T10:37:44.509Z,4.24
2023-03-15T10:40:16.345Z,4.01
2023-03-15T10:42:45.175Z,4.08
2023-03-15T10:45:20.804Z,4.12
2023-03-15T10:47:57.731Z,4.13
2023-03-15T10:50:28.878Z,4.09
2023-03-15T10:52:57.369Z,4.24
2023-03-15T10:55:37.005Z,4.26
2023-03-15T10:58:27.587Z,4.31
2023-03-15T11:01:07.419Z,4.37
2023-03-15T11:03:35.292Z,4.24
2023-03-15T11:06:02.550Z,4.28
2023-03-15T11:08:41.183Z,4.52
2023-03-15T11:11:09.239Z,4.34
2023-03-15T11:13:38.212Z,4.56
2023-03-15T11:16:20.095Z,4.75
2023-03-15T11:18:59.639Z,4.95
2023-03-15T11:21:33.480Z,4.97
2023-03-15T11:24:03.173Z,5.07
2023-03-15T11:26:35.998Z,5.30
2023-03-15T11:29:08.090Z,5.25
2023-03-15T11:31:36.261Z,5.29
2023-03-15T11:34:12.402Z,5.30
2023-03-15T11:36:44.044Z,4.95
2023-03-15T11:39:15.494Z,5.09
2023-03-15T11:41:54.366Z,5.11
2023-03-15T11:44:46.646Z,4.89
2023-03-15T11:47:37.134Z,4.71
2023-03-15T11:50:04.347Z,4.79
2023-03-15T11:52:31.192Z,5.06
2023-03-15T11:55:03.921Z,5.18
2023-03-15T11:57:58.032Z,5.23
2023-03-15T12:00:49.436Z,5.38
2023-03-15T12:03:45.237Z,5.16
2023-03-15T12:06:36.745Z,5.29
2023-03-15T12:09:52.750Z,5.36
2023-03-15T12:12:25.121Z,4.95
2023-03-15T12:15:18.397Z,4.90
2023-03-15T12:17:50.730Z,4.91
2023-03-15T12:20:21.497Z,5.12
2023-03-15T12:22:55.367Z,5.34
2023-03-15T12:26:06.351Z,5.31
2023-03-15T12:28:41.363Z,5.20
2023-03-15T12:31:14.593Z,4.93
2023-03-15T12:33:51.421Z,5.03
2023-03-15T12:36:42.189Z,4.77
2023-03-15T12:39:45.633Z,4.74
2023-03-15T12:42:52.564Z,5.05
2023-03-15T12:45:37.297Z,5.25
2023-03-15T12:48:24.672Z,5.37
2023-03-15T12:50:54.811Z,5.35
2023-03-15T12:53:44.759Z,5.29
2023-03-15T12:56:42.491Z,5.49
2023-03-15T12:59:25.146Z,5.62
2023-03-15T13:01:52.490Z,5.88
2023-03-15T13:04:21.165Z,5.70
2023-03-15T13:07:17.866Z,5.60
2023-03-15T13:10:31.394Z,5.68
2023-03-15T13:13:13.386Z,5.86
2023-03-15T13:16:38.330Z,6.27
2023-03-15T13:19:18.893Z,5.93
2023-03-15T13:22:24.437Z,5.83
2023-03-15T13:25:08.333Z,5.59
2023-03-15T13:28:03.971Z,5.80
2023-03-15T13:30:36.799Z,5.47
2023-03-15T13:33:29.162Z,5.27
2023-03-15T13:36:01.498Z,5.44
2023-03-15T13:38:49.645Z,5.30
2023-03-15T13:41:24.975Z,5.11
2023-03-15T13:43:54.622Z,5.19
2023-03-15T13:46:24.082Z,5.06
2023-03-15T13:48:54.406Z,4.95
2023-03-15T13:51:24.979Z,4.64
2023-03-15T13:53:58.360Z,4.59
2023-03-15T13:56:37.369Z,4.80
2023-03-15T13:59:12.284Z,4.95
2023-03-15T14:01:42.404Z,4.93
2023-03-15T14:04:15.718Z,5.11
2023-03-15T14:06:45.594Z,5.48
2023-03-15T14:09:21.603Z,5.71
2023-03-15T14:12:02.431Z,5.61
2023-03-15T14:14:31.241Z,5.47
2023-03-15T14:17:05.490Z,5.46
2023-03-15T14:19:35.153Z,5.43
2023-03-15T14:22:12.517Z,5.44
2023-03-15T14:24:41.694Z,5.51
2023-03-15T14:27:25.237Z,5.46
2023-03-15T14:29:57.554Z,5.72
2023-03-15T14:32:30.082Z,5.73
2023-03-15T14:35:17.548Z,5.61
2023-03-15T14:37:44.486Z,5.59
2023-03-15T14:40:21.459Z,5.43
2023-03-15T14:42:49.859Z,5.33
2023-03-15T14:45:18.481Z,5.40
2023-03-15T14:47:56.741Z,5.52
2023-03-15T14:50:26.413Z,5.65
2023-03-15T14:52:54.365Z,5.70
2023-03-15T14:55:29.260Z,5.85
2023-03-15T14:57:55.957Z,5.75
2023-03-15T15:00:22.822Z,5.91
2023-03-15T15:02:53.047Z,5.98
2023-03-15T15:05:37.785Z,5.81
2023-03-15T15:08:09.504Z,5.62
2023-03-15T15:10:36.881Z,5.77
2023-03-15T15:13:06.922Z,5.81
2023-03-15T15:15:47.377Z,5.98
2023-03-15T15:18:18.653Z,5.84
2023-03-15T15:20:46.060Z,5.72
2023-03-15T15:23:20.102Z,5.69
2023-03-15T15:25:48.091Z,5.68
2023-03-15T15:28:23.911Z,5.71
2023-03-15T15:31:00.026Z,5.63
2023-03-15T15:33:26.603Z,5.62
2023-03-15T15:35:55.350Z,5.68
2023-03-15T15:38:24.595Z,5.56
2023-03-15T15:40:51.222Z,5.62
2023-03-15T15:43:19.002Z,5.59
2023-03-15T15:45:45.639Z,5.63
2023-03-15T15:48:12.207Z,5.65
2023-03-15T15:50:38.851Z,5.59
2023-03-15T15:53:06.662Z,5.53
2023-03-15T15:55:35.976Z,5.50
2023-03-15T15:58:04.629Z,5.45
2023-03-15T16:00:31.359Z,5.44
2023-03-15T16:02:58.794Z,5.46
2023-03-15T16:05:27.498Z,5.43
2023-03-15T16:07:56.639Z,5.46
2023-03-15T16:10:30.465Z,5.48
2023-03-15T16:12:57.762Z,5.40
2023-03-15T16:15:24.433Z,5.42
2023-03-15T16:17:51.041Z,5.40
2023-03-15T16:20:18.743Z,5.40
2023-03-15T16:22:52.612Z,5.31
2023-03-15T16:25:26.344Z,5.27
2023-03-15T16:27:54.789Z,5.19
2023-03-15T16:30:24.210Z,5.19
2023-03-15T16:32:55.234Z,5.17
2023-03-15T16:35:24.461Z,5.17
2023-03-15T16:37:56.305Z,5.03
2023-03-15T16:40:27.382Z,5.06
2023-03-15T16:42:54.866Z,5.01
2023-03-15T16:45:21.844Z,5.01
2023-03-15T16:47:48.718Z,4.95
2023-03-15T16:50:15.783Z,4.87
2023-03-15T16:52:44.603Z,4.78
2023-03-15T16:55:14.136Z,4.76
2023-03-15T16:57:41.172Z,4.74
2023-03-15T17:00:16.198Z,4.65
2023-03-15T17:02:46.034Z,4.71
2023-03-15T17:05:17.602Z,4.65
2023-03-15T17:07:44.827Z,4.58
2023-03-15T17:10:20.107Z,4.56
2023-03-15T17:12:46.946Z,4.52
2023-03-15T17:15:13.817Z,4.54
2023-03-15T17:17:40.414Z,4.50
2023-03-15T17:20:12.511Z,4.29
2023-03-15T17:22:41.946Z,4.21
2023-03-15T17:25:09.045Z,4.18
2023-03-15T17:27:39.254Z,4.10
2023-03-15T17:30:30.316Z,4.07
2023-03-15T17:32:57.404Z,3.84
2023-03-15T17:35:29.292Z,3.57
2023-03-15T17:37:56.352Z,3.28
2023-03-15T17:40:25.192Z,3.13
2023-03-15T17:42:54.035Z,3.04
2023-03-15T17:45:23.633Z,3.00
2023-03-15T17:47:51.114Z,2.97
2023-03-15T17:50:18.909Z,2.85
2023-03-15T17:52:47.832Z,2.68
2023-03-15T17:55:16.578Z,2.81
2023-03-15T17:57:53.923Z,2.87
2023-03-15T18:00:22.175Z,2.94
2023-03-15T18:02:55.683Z,2.91
2023-03-15T18:05:27.920Z,2.90
2023-03-15T18:08:01.923Z,2.98
2023-03-15T18:10:35.583Z,2.94
2023-03-15T18:13:03.101Z,3.06
2023-03-15T18:15:29.793Z,3.02
2023-03-15T18:17:56.430Z,3.06
2023-03-15T18:20:24.182Z,3.12
2023-03-15T18:22:51.643Z,3.16
2023-03-15T18:25:27.759Z,3.21
2023-03-15T18:27:54.522Z,3.21
2023-03-15T18:30:23.744Z,3.13
2023-03-15T18:32:52.140Z,3.20
2023-03-15T18:35:25.081Z,3.29
2023-03-15T18:37:54.059Z,3.28
2023-03-15T18:40:21.606Z,3.35
2023-03-15T18:42:48.398Z,3.29
2023-03-15T18:45:22.010Z,3.23
2023-03-15T18:47:49.236Z,3.28
2023-03-15T18:50:17.273Z,3.24
2023-03-15T18:52:44.628Z,3.22
2023-03-15T18:55:16.853Z,3.24
2023-03-15T18:57:46.058Z,3.17
2023-03-15T19:00:15.161Z,3.14
2023-03-15T19:02:44.180Z,3.13
2023-03-15T19:05:12.403Z,3.20
2023-03-15T19:07:40.324Z,3.20
2023-03-15T19:10:09.962Z,3.17
2023-03-15T19:12:36.903Z,3.20
2023-03-15T19:15:04.875Z,3.21
2023-03-15T19:17:31.496Z,3.21
2023-03-15T19:19:58.088Z,3.24
2023-03-15T19:22:26.458Z,3.25
2023-03-15T19:24:53.085Z,3.25
2023-03-15T19:27:19.829Z,3.21
2023-03-15T19:29:46.424Z,3.13
2023-03-15T19:32:13.158Z,3.14
2023-03-15T19:34:39.738Z,3.08
2023-03-15T19:37:06.289Z,3.10
2023-03-15T19:39:33.100Z,3.12
2023-03-15T19:41:59.789Z,3.11
2023-03-15T19:44:27.284Z,3.06
2023-03-15T19:46:53.878Z,3.10
2023-03-15T19:49:20.673Z,3.15
2023-03-15T19:51:47.216Z,3.21
2023-03-15T19:54:13.806Z,3.11
2023-03-15T19:56:40.395Z,3.14
2023-03-15T19:59:07.083Z,3.21
2023-03-15T20:01:34.099Z,3.18
2023-03-15T20:04:00.823Z,3.24
2023-03-15T20:06:27.419Z,3.16
2023-03-15T20:08:53.997Z,3.11
2023-03-15T20:11:25.033Z,3.09
2023-03-15T20:13:55.171Z,3.08
2023-03-15T20:16:22.810Z,3.07
2023-03-15T20:18:55.204Z,2.97
2023-03-15T20:21:22.554Z,3.01
2023-03-15T20:23:49.203Z,2.91
2023-03-15T20:26:17.652Z,2.84
2023-03-15T20:28:44.780Z,2.85
2023-03-15T20:31:17.347Z,2.93
2023-03-15T20:33:45.644Z,2.93
2023-03-15T20:36:12.313Z,2.83
2023-03-15T20:38:38.955Z,2.83
2023-03-15T20:41:06.984Z,2.69
2023-03-15T20:43:34.149Z,2.83
2023-03-15T20:46:04.332Z,2.73
2023-03-15T20:48:33.886Z,2.80
2023-03-15T20:51:04.142Z,2.97
2023-03-15T20:53:36.044Z,2.95
2023-03-15T20:56:03.601Z,2.96
2023-03-15T20:58:31.011Z,2.86
2023-03-15T21:01:09.250Z,2.84
2023-03-15T21:03:36.615Z,2.65
2023-03-15T21:06:05.978Z,2.67
2023-03-15T21:08:33.610Z,2.76
2023-03-15T21:11:01.101Z,2.68
2023-03-15T21:13:27.988Z,2.60
2023-03-15T21:15:54.713Z,2.59
2023-03-15T21:18:23.677Z,2.58
2023-03-15T21:21:05.045Z,2.47
2023-03-15T21:23:31.973Z,2.50
2023-03-15T21:26:01.746Z,2.54
2023-03-15T21:28:28.865Z,2.51
2023-03-15T21:30:56.121Z,2.46
2023-03-15T21:33:24.291Z,2.30
2023-03-15T21:35:51.276Z,2.34
2023-03-15T21:38:18.132Z,2.36
2023-03-15T21:40:46.580Z,2.37
2023-03-15T21:43:13.949Z,2.36
2023-03-15T21:45:42.498Z,2.34
2023-03-15T21:48:09.657Z,2.35
2023-03-15T21:50:36.588Z,2.29
2023-03-15T21:53:03.742Z,2.17
2023-03-15T21:55:33.483Z,2.11
2023-03-15T21:58:01.956Z,2.00
2023-03-15T22:00:29.850Z,1.97
2023-03-15T22:02:57.046Z,1.96
2023-03-15T22:05:24.051Z,1.94
2023-03-15T22:07:50.735Z,1.95
2023-03-15T22:10:19.638Z,1.89
2023-03-15T22:12:46.389Z,1.90
2023-03-15T22:15:13.412Z,1.89
2023-03-15T22:17:40.186Z,1.95
2023-03-15T22:20:17.082Z,2.06
2023-03-15T22:22:48.997Z,2.05
2023-03-15T22:25:16.322Z,2.02
2023-03-15T22:27:43.637Z,2.02
2023-03-15T22:30:17.708Z,1.96
2023-03-15T22:32:44.647Z,1.96
2023-03-15T22:35:13.627Z,1.99
2023-03-15T22:37:40.282Z,1.94
2023-03-15T22:40:08.374Z,1.92
2023-03-15T22:42:35.372Z,1.93
2023-03-15T22:45:02.112Z,1.89
2023-03-15T22:47:28.998Z,1.98
2023-03-15T22:49:55.626Z,2.03
2023-03-15T22:52:22.256Z,1.96
2023-03-15T22:54:48.889Z,1.93
2023-03-15T22:57:15.502Z,1.88
2023-03-15T22:59:42.081Z,1.87
2023-03-15T23:02:09.132Z,1.84
2023-03-15T23:04:35.781Z,1.85
2023-03-15T23:07:02.393Z,1.84
2023-03-15T23:09:29.159Z,1.90
2023-03-15T23:11:55.803Z,1.88
2023-03-15T23:14:22.466Z,1.89
2023-03-15T23:16:49.495Z,1.91
2023-03-15T23:19:16.194Z,1.96
2023-03-15T23:21:42.824Z,2.03
2023-03-15T23:24:09.483Z,1.97
2023-03-15T23:26:37.155Z,1.99
2023-03-15T23:29:10.662Z,1.98
2023-03-15T23:31:41.785Z,2.03
2023-03-15T23:34:09.030Z,1.96
2023-03-15T23:36:36.339Z,1.93
2023-03-15T23:39:03.026Z,2.02
2023-03-15T23:41:29.777Z,1.96
2023-03-15T23:43:56.538Z,2.00
2023-03-15T23:46:25.972Z,1.98
2023-03-15T23:48:53.192Z,2.03
2023-03-15T23:51:22.128Z,1.97
2023-03-15T23:53:48.744Z,1.96
2023-03-15T23:56:15.384Z,1.98
2023-03-15T23:58:42.050Z,2.06
